sensor_id;sensor_type;location;lat;lon;timestamp;P1;durP1;ratioP1;P2;durP2;ratioP2
24279;SDS011;12395;42.808;23.408;2022-10-19T00:01:19;7.18;;;3.95;;
24279;SDS011;12395;42.808;23.408;2022-10-19T00:03:47;7.20;;;4.63;;
24279;SDS011;12395;42.808;23.408;2022-10-19T00:06:15;5.20;;;3.70;;
24279;SDS011;12395;42.808;23.408;2022-10-19T00:08:43;6.68;;;3.85;;
24279;SDS011;12395;42.808;23.408;2022-10-19T00:11:10;7.18;;;3.95;;
24279;SDS011;12395;42.808;23.408;2022-10-19T00:13:36;9.33;;;4.60;;
24279;SDS011;12395;42.808;23.408;2022-10-19T00:16:05;7.82;;;4.07;;
24279;SDS011;12395;42.808;23.408;2022-10-19T00:18:32;6.40;;;3.65;;
24279;SDS011;12395;42.808;23.408;2022-10-19T00:21:02;7.25;;;4.15;;
24279;SDS011;12395;42.808;23.408;2022-10-19T00:23:29;7.20;;;4.10;;
24279;SDS011;12395;42.808;23.408;2022-10-19T00:25:55;8.40;;;4.45;;
24279;SDS011;12395;42.808;23.408;2022-10-19T00:28:21;6.85;;;4.05;;
24279;SDS011;12395;42.808;23.408;2022-10-19T00:30:46;6.25;;;4.32;;
24279;SDS011;12395;42.808;23.408;2022-10-19T00:33:12;7.53;;;4.43;;
24279;SDS011;12395;42.808;23.408;2022-10-19T00:35:40;6.15;;;4.10;;
24279;SDS011;12395;42.808;23.408;2022-10-19T00:38:06;7.13;;;4.50;;
24279;SDS011;12395;42.808;23.408;2022-10-19T00:40:37;8.07;;;4.10;;
24279;SDS011;12395;42.808;23.408;2022-10-19T00:43:04;8.43;;;4.55;;
24279;SDS011;12395;42.808;23.408;2022-10-19T00:45:34;8.95;;;4.65;;
24279;SDS011;12395;42.808;23.408;2022-10-19T00:47:59;8.20;;;4.22;;
24279;SDS011;12395;42.808;23.408;2022-10-19T00:50:25;8.73;;;4.63;;
24279;SDS011;12395;42.808;23.408;2022-10-19T00:52:50;7.32;;;4.13;;
24279;SDS011;12395;42.808;23.408;2022-10-19T00:55:16;9.07;;;4.35;;
24279;SDS011;12395;42.808;23.408;2022-10-19T00:57:41;7.63;;;4.28;;
24279;SDS011;12395;42.808;23.408;2022-10-19T01:00:07;7.07;;;4.30;;
24279;SDS011;12395;42.808;23.408;2022-10-19T01:02:33;9.40;;;4.25;;
24279;SDS011;12395;42.808;23.408;2022-10-19T01:04:59;9.38;;;4.07;;
24279;SDS011;12395;42.808;23.408;2022-10-19T01:07:25;6.45;;;3.80;;
24279;SDS011;12395;42.808;23.408;2022-10-19T01:09:52;7.70;;;4.30;;
24279;SDS011;12395;42.808;23.408;2022-10-19T01:12:30;8.35;;;4.88;;
24279;SDS011;12395;42.808;23.408;2022-10-19T01:32:16;8.30;;;4.10;;
24279;SDS011;12395;42.808;23.408;2022-10-19T01:42:31;8.70;;;4.57;;
24279;SDS011;12395;42.808;23.408;2022-10-19T01:45:16;11.98;;;4.80;;
24279;SDS011;12395;42.808;23.408;2022-10-19T01:47:52;7.87;;;4.50;;
24279;SDS011;12395;42.808;23.408;2022-10-19T01:50:26;7.18;;;4.35;;
24279;SDS011;12395;42.808;23.408;2022-10-19T01:52:58;8.38;;;4.30;;
24279;SDS011;12395;42.808;23.408;2022-10-19T01:55:23;8.23;;;4.50;;
24279;SDS011;12395;42.808;23.408;2022-10-19T01:57:55;9.02;;;4.47;;
24279;SDS011;12395;42.808;23.408;2022-10-19T02:00:25;8.10;;;4.63;;
24279;SDS011;12395;42.808;23.408;2022-10-19T02:05:20;8.73;;;4.38;;
24279;SDS011;12395;42.808;23.408;2022-10-19T02:07:53;7.90;;;4.35;;
24279;SDS011;12395;42.808;23.408;2022-10-19T02:10:22;7.50;;;4.50;;
24279;SDS011;12395;42.808;23.408;2022-10-19T02:12:48;8.10;;;4.37;;
24279;SDS011;12395;42.808;23.408;2022-10-19T02:15:18;7.43;;;4.30;;
24279;SDS011;12395;42.808;23.408;2022-10-19T02:17:47;8.25;;;4.53;;
24279;SDS011;12395;42.808;23.408;2022-10-19T02:20:15;9.10;;;4.43;;
24279;SDS011;12395;42.808;23.408;2022-10-19T02:22:41;7.67;;;4.23;;
24279;SDS011;12395;42.808;23.408;2022-10-19T02:25:07;7.47;;;4.43;;
24279;SDS011;12395;42.808;23.408;2022-10-19T02:27:33;8.27;;;4.73;;
24279;SDS011;12395;42.808;23.408;2022-10-19T02:30:00;8.82;;;4.50;;
24279;SDS011;12395;42.808;23.408;2022-10-19T02:32:27;9.02;;;4.70;;
24279;SDS011;12395;42.808;23.408;2022-10-19T02:34:53;8.37;;;4.57;;
24279;SDS011;12395;42.808;23.408;2022-10-19T02:37:18;9.23;;;4.60;;
24279;SDS011;12395;42.808;23.408;2022-10-19T02:39:44;7.23;;;4.03;;
24279;SDS011;12395;42.808;23.408;2022-10-19T02:42:11;7.90;;;4.13;;
24279;SDS011;12395;42.808;23.408;2022-10-19T02:44:42;9.77;;;4.63;;
24279;SDS011;12395;42.808;23.408;2022-10-19T02:47:28;7.83;;;4.43;;
24279;SDS011;12395;42.808;23.408;2022-10-19T02:49:57;8.27;;;4.20;;
24279;SDS011;12395;42.808;23.408;2022-10-19T02:52:23;7.03;;;4.10;;
24279;SDS011;12395;42.808;23.408;2022-10-19T02:54:48;10.10;;;4.43;;
24279;SDS011;12395;42.808;23.408;2022-10-19T02:59:39;8.17;;;3.97;;
24279;SDS011;12395;42.808;23.408;2022-10-19T03:02:04;8.83;;;4.40;;
24279;SDS011;12395;42.808;23.408;2022-10-19T03:04:30;6.53;;;4.43;;
24279;SDS011;12395;42.808;23.408;2022-10-19T03:06:55;9.73;;;4.67;;
24279;SDS011;12395;42.808;23.408;2022-10-19T03:09:20;10.57;;;5.13;;
24279;SDS011;12395;42.808;23.408;2022-10-19T03:11:46;9.93;;;5.30;;
24279;SDS011;12395;42.808;23.408;2022-10-19T03:14:11;9.17;;;4.43;;
24279;SDS011;12395;42.808;23.408;2022-10-19T03:16:37;8.17;;;4.20;;
24279;SDS011;12395;42.808;23.408;2022-10-19T03:19:02;8.97;;;4.53;;
24279;SDS011;12395;42.808;23.408;2022-10-19T03:21:27;9.57;;;4.90;;
24279;SDS011;12395;42.808;23.408;2022-10-19T03:23:53;9.00;;;4.50;;
24279;SDS011;12395;42.808;23.408;2022-10-19T03:26:18;7.53;;;4.03;;
24279;SDS011;12395;42.808;23.408;2022-10-19T03:28:44;7.93;;;4.03;;
24279;SDS011;12395;42.808;23.408;2022-10-19T03:31:09;10.73;;;4.50;;
24279;SDS011;12395;42.808;23.408;2022-10-19T03:33:35;9.83;;;4.17;;
24279;SDS011;12395;42.808;23.408;2022-10-19T03:38:38;7.47;;;4.18;;
24279;SDS011;12395;42.808;23.408;2022-10-19T03:41:07;7.77;;;4.70;;
24279;SDS011;12395;42.808;23.408;2022-10-19T03:43:33;9.13;;;4.47;;
24279;SDS011;12395;42.808;23.408;2022-10-19T03:45:59;6.83;;;4.27;;
24279;SDS011;12395;42.808;23.408;2022-10-19T03:48:24;10.50;;;4.70;;
24279;SDS011;12395;42.808;23.408;2022-10-19T03:51:00;7.93;;;4.60;;
24279;SDS011;12395;42.808;23.408;2022-10-19T03:53:27;8.70;;;3.90;;
24279;SDS011;12395;42.808;23.408;2022-10-19T03:55:52;8.10;;;4.70;;
24279;SDS011;12395;42.808;23.408;2022-10-19T03:58:27;8.40;;;4.47;;
24279;SDS011;12395;42.808;23.408;2022-10-19T04:00:52;8.60;;;4.83;;
24279;SDS011;12395;42.808;23.408;2022-10-19T04:03:18;7.87;;;4.13;;
24279;SDS011;12395;42.808;23.408;2022-10-19T04:05:43;6.90;;;4.00;;
24279;SDS011;12395;42.808;23.408;2022-10-19T04:08:08;9.10;;;4.60;;
24279;SDS011;12395;42.808;23.408;2022-10-19T04:10:34;8.30;;;4.10;;
24279;SDS011;12395;42.808;23.408;2022-10-19T04:12:59;8.27;;;4.40;;
24279;SDS011;12395;42.808;23.408;2022-10-19T04:15:24;8.27;;;4.13;;
24279;SDS011;12395;42.808;23.408;2022-10-19T04:17:50;7.33;;;4.50;;
24279;SDS011;12395;42.808;23.408;2022-10-19T04:20:15;9.03;;;4.40;;
24279;SDS011;12395;42.808;23.408;2022-10-19T04:22:41;9.80;;;4.33;;
24279;SDS011;12395;42.808;23.408;2022-10-19T04:25:07;9.03;;;4.43;;
24279;SDS011;12395;42.808;23.408;2022-10-19T04:27:33;7.35;;;4.07;;
24279;SDS011;12395;42.808;23.408;2022-10-19T04:29:59;7.07;;;4.23;;
24279;SDS011;12395;42.808;23.408;2022-10-19T04:32:24;7.13;;;4.23;;
24279;SDS011;12395;42.808;23.408;2022-10-19T04:34:50;9.23;;;4.73;;
24279;SDS011;12395;42.808;23.408;2022-10-19T04:37:15;10.17;;;4.80;;
24279;SDS011;12395;42.808;23.408;2022-10-19T04:39:40;8.03;;;4.27;;
24279;SDS011;12395;42.808;23.408;2022-10-19T04:42:07;8.73;;;4.67;;
24279;SDS011;12395;42.808;23.408;2022-10-19T04:44:32;8.17;;;4.40;;
24279;SDS011;12395;42.808;23.408;2022-10-19T04:46:58;6.37;;;4.00;;
24279;SDS011;12395;42.808;23.408;2022-10-19T04:49:23;8.67;;;4.47;;
24279;SDS011;12395;42.808;23.408;2022-10-19T04:51:48;9.03;;;4.43;;
24279;SDS011;12395;42.808;23.408;2022-10-19T04:54:14;9.43;;;4.10;;
24279;SDS011;12395;42.808;23.408;2022-10-19T04:56:39;7.50;;;4.27;;
24279;SDS011;12395;42.808;23.408;2022-10-19T04:59:05;8.30;;;4.63;;
24279;SDS011;12395;42.808;23.408;2022-10-19T05:01:30;7.90;;;4.30;;
24279;SDS011;12395;42.808;23.408;2022-10-19T05:03:59;9.83;;;4.50;;
24279;SDS011;12395;42.808;23.408;2022-10-19T05:06:26;8.50;;;4.27;;
24279;SDS011;12395;42.808;23.408;2022-10-19T05:08:52;9.60;;;4.67;;
24279;SDS011;12395;42.808;23.408;2022-10-19T05:11:18;8.57;;;4.90;;
24279;SDS011;12395;42.808;23.408;2022-10-19T05:13:45;7.43;;;4.40;;
24279;SDS011;12395;42.808;23.408;2022-10-19T05:16:13;10.13;;;5.07;;
24279;SDS011;12395;42.808;23.408;2022-10-19T05:18:40;8.23;;;4.50;;
24279;SDS011;12395;42.808;23.408;2022-10-19T05:21:09;7.33;;;4.50;;
24279;SDS011;12395;42.808;23.408;2022-10-19T05:23:37;7.63;;;4.60;;
24279;SDS011;12395;42.808;23.408;2022-10-19T05:26:13;8.67;;;4.70;;
24279;SDS011;12395;42.808;23.408;2022-10-19T05:32:06;8.43;;;4.13;;
24279;SDS011;12395;42.808;23.408;2022-10-19T05:34:31;10.17;;;4.53;;
24279;SDS011;12395;42.808;23.408;2022-10-19T05:36:57;10.90;;;5.00;;
24279;SDS011;12395;42.808;23.408;2022-10-19T05:42:44;7.37;;;4.47;;
24279;SDS011;12395;42.808;23.408;2022-10-19T05:45:09;8.87;;;4.57;;
24279;SDS011;12395;42.808;23.408;2022-10-19T05:47:41;9.27;;;4.63;;
24279;SDS011;12395;42.808;23.408;2022-10-19T05:50:08;10.83;;;5.20;;
24279;SDS011;12395;42.808;23.408;2022-10-19T05:53:31;13.10;;;5.60;;
24279;SDS011;12395;42.808;23.408;2022-10-19T05:55:57;11.10;;;5.87;;
24279;SDS011;12395;42.808;23.408;2022-10-19T05:58:23;15.90;;;7.57;;
24279;SDS011;12395;42.808;23.408;2022-10-19T06:00:58;23.10;;;9.20;;
24279;SDS011;12395;42.808;23.408;2022-10-19T06:03:30;16.83;;;9.40;;
24279;SDS011;12395;42.808;23.408;2022-10-19T06:06:02;19.45;;;10.05;;
24279;SDS011;12395;42.808;23.408;2022-10-19T06:08:28;18.93;;;10.60;;
24279;SDS011;12395;42.808;23.408;2022-10-19T06:11:02;17.50;;;10.00;;
24279;SDS011;12395;42.808;23.408;2022-10-19T06:15:58;15.93;;;9.30;;
24279;SDS011;12395;42.808;23.408;2022-10-19T06:18:23;19.67;;;10.18;;
24279;SDS011;12395;42.808;23.408;2022-10-19T06:20:50;16.57;;;10.00;;
24279;SDS011;12395;42.808;23.408;2022-10-19T06:23:16;15.30;;;8.87;;
24279;SDS011;12395;42.808;23.408;2022-10-19T06:25:42;16.45;;;9.13;;
24279;SDS011;12395;42.808;23.408;2022-10-19T06:28:07;15.03;;;8.10;;
24279;SDS011;12395;42.808;23.408;2022-10-19T06:30:33;19.10;;;10.30;;
24279;SDS011;12395;42.808;23.408;2022-10-19T06:32:58;15.32;;;9.65;;
24279;SDS011;12395;42.808;23.408;2022-10-19T06:35:23;15.75;;;9.40;;
24279;SDS011;12395;42.808;23.408;2022-10-19T06:37:49;15.68;;;10.02;;
24279;SDS011;12395;42.808;23.408;2022-10-19T06:40:14;17.30;;;10.40;;
24279;SDS011;12395;42.808;23.408;2022-10-19T06:42:40;20.88;;;12.02;;
24279;SDS011;12395;42.808;23.408;2022-10-19T06:45:06;20.85;;;11.98;;
24279;SDS011;12395;42.808;23.408;2022-10-19T06:47:44;22.75;;;12.18;;
24279;SDS011;12395;42.808;23.408;2022-10-19T06:50:10;18.85;;;11.02;;
24279;SDS011;12395;42.808;23.408;2022-10-19T06:52:35;17.27;;;10.48;;
24279;SDS011;12395;42.808;23.408;2022-10-19T06:55:01;19.08;;;11.48;;
24279;SDS011;12395;42.808;23.408;2022-10-19T06:57:27;16.92;;;10.15;;
24279;SDS011;12395;42.808;23.408;2022-10-19T06:59:53;16.92;;;10.23;;
24279;SDS011;12395;42.808;23.408;2022-10-19T07:02:22;23.17;;;13.43;;
24279;SDS011;12395;42.808;23.408;2022-10-19T07:04:48;24.08;;;13.05;;
24279;SDS011;12395;42.808;23.408;2022-10-19T07:07:13;20.23;;;11.05;;
24279;SDS011;12395;42.808;23.408;2022-10-19T07:09:39;15.65;;;10.27;;
24279;SDS011;12395;42.808;23.408;2022-10-19T07:12:04;15.57;;;9.75;;
24279;SDS011;12395;42.808;23.408;2022-10-19T07:14:30;20.42;;;11.48;;
24279;SDS011;12395;42.808;23.408;2022-10-19T07:16:55;23.17;;;11.75;;
24279;SDS011;12395;42.808;23.408;2022-10-19T07:19:24;23.60;;;13.23;;
24279;SDS011;12395;42.808;23.408;2022-10-19T07:21:50;19.42;;;10.80;;
24279;SDS011;12395;42.808;23.408;2022-10-19T07:24:16;16.52;;;9.30;;
24279;SDS011;12395;42.808;23.408;2022-10-19T07:26:42;13.63;;;8.02;;
24279;SDS011;12395;42.808;23.408;2022-10-19T07:29:08;13.95;;;8.32;;
24279;SDS011;12395;42.808;23.408;2022-10-19T07:31:33;15.23;;;8.68;;
24279;SDS011;12395;42.808;23.408;2022-10-19T07:34:00;15.90;;;8.25;;
24279;SDS011;12395;42.808;23.408;2022-10-19T07:36:27;15.65;;;8.63;;
24279;SDS011;12395;42.808;23.408;2022-10-19T07:38:54;14.43;;;8.52;;
24279;SDS011;12395;42.808;23.408;2022-10-19T07:41:20;14.15;;;8.75;;
24279;SDS011;12395;42.808;23.408;2022-10-19T07:43:48;14.00;;;8.50;;
24279;SDS011;12395;42.808;23.408;2022-10-19T07:46:19;17.00;;;9.45;;
24279;SDS011;12395;42.808;23.408;2022-10-19T07:48:46;15.07;;;7.80;;
24279;SDS011;12395;42.808;23.408;2022-10-19T07:51:13;14.55;;;8.65;;
24279;SDS011;12395;42.808;23.408;2022-10-19T07:53:40;15.02;;;8.55;;
24279;SDS011;12395;42.808;23.408;2022-10-19T07:56:08;15.18;;;8.25;;
24279;SDS011;12395;42.808;23.408;2022-10-19T07:58:38;14.65;;;8.20;;
24279;SDS011;12395;42.808;23.408;2022-10-19T08:01:46;15.90;;;7.88;;
24279;SDS011;12395;42.808;23.408;2022-10-19T08:03:54;13.57;;;8.00;;
24279;SDS011;12395;42.808;23.408;2022-10-19T08:06:21;17.65;;;8.73;;
24279;SDS011;12395;42.808;23.408;2022-10-19T08:08:48;12.80;;;7.88;;
24279;SDS011;12395;42.808;23.408;2022-10-19T08:11:15;14.68;;;7.82;;
24279;SDS011;12395;42.808;23.408;2022-10-19T08:13:49;12.88;;;7.30;;
24279;SDS011;12395;42.808;23.408;2022-10-19T08:16:20;13.30;;;7.43;;
24279;SDS011;12395;42.808;23.408;2022-10-19T08:21:41;13.20;;;7.20;;
24279;SDS011;12395;42.808;23.408;2022-10-19T08:24:09;14.82;;;6.75;;
24279;SDS011;12395;42.808;23.408;2022-10-19T08:26:36;11.27;;;5.80;;
24279;SDS011;12395;42.808;23.408;2022-10-19T08:29:03;14.77;;;6.30;;
24279;SDS011;12395;42.808;23.408;2022-10-19T08:31:32;9.25;;;5.47;;
24279;SDS011;12395;42.808;23.408;2022-10-19T08:33:58;10.73;;;5.50;;
24279;SDS011;12395;42.808;23.408;2022-10-19T08:36:23;12.38;;;6.25;;
24279;SDS011;12395;42.808;23.408;2022-10-19T08:38:50;10.65;;;5.97;;
24279;SDS011;12395;42.808;23.408;2022-10-19T08:49:02;10.07;;;5.07;;
24279;SDS011;12395;42.808;23.408;2022-10-19T08:51:28;10.43;;;4.97;;
24279;SDS011;12395;42.808;23.408;2022-10-19T08:53:59;10.32;;;5.15;;
24279;SDS011;12395;42.808;23.408;2022-10-19T08:56:30;12.43;;;5.20;;
24279;SDS011;12395;42.808;23.408;2022-10-19T09:02:02;10.32;;;4.85;;
24279;SDS011;12395;42.808;23.408;2022-10-19T09:04:39;12.23;;;5.00;;
24279;SDS011;12395;42.808;23.408;2022-10-19T09:07:25;9.07;;;4.53;;
24279;SDS011;12395;42.808;23.408;2022-10-19T09:15:13;7.88;;;4.28;;
24279;SDS011;12395;42.808;23.408;2022-10-19T09:17:43;9.10;;;4.40;;
24279;SDS011;12395;42.808;23.408;2022-10-19T09:20:16;9.30;;;4.55;;
24279;SDS011;12395;42.808;23.408;2022-10-19T09:22:43;8.75;;;4.05;;
24279;SDS011;12395;42.808;23.408;2022-10-19T09:27:43;9.98;;;4.20;;
24279;SDS011;12395;42.808;23.408;2022-10-19T09:30:16;10.40;;;4.38;;
24279;SDS011;12395;42.808;23.408;2022-10-19T09:32:48;8.20;;;4.18;;
24279;SDS011;12395;42.808;23.408;2022-10-19T09:38:02;6.55;;;3.75;;
24279;SDS011;12395;42.808;23.408;2022-10-19T09:40:30;8.73;;;4.13;;
24279;SDS011;12395;42.808;23.408;2022-10-19T09:42:55;9.73;;;3.83;;
24279;SDS011;12395;42.808;23.408;2022-10-19T09:45:42;8.77;;;4.30;;
24279;SDS011;12395;42.808;23.408;2022-10-19T09:50:59;9.25;;;3.80;;
24279;SDS011;12395;42.808;23.408;2022-10-19T09:53:26;9.15;;;3.60;;
24279;SDS011;12395;42.808;23.408;2022-10-19T09:55:57;6.35;;;3.50;;
24279;SDS011;12395;42.808;23.408;2022-10-19T09:58:27;8.30;;;3.55;;
24279;SDS011;12395;42.808;23.408;2022-10-19T10:00:54;9.27;;;3.83;;
24279;SDS011;12395;42.808;23.408;2022-10-19T10:05:47;8.32;;;3.13;;
24279;SDS011;12395;42.808;23.408;2022-10-19T10:08:14;5.40;;;3.30;;
24279;SDS011;12395;42.808;23.408;2022-10-19T10:10:43;8.07;;;3.17;;
24279;SDS011;12395;42.808;23.408;2022-10-19T10:13:15;8.65;;;3.05;;
24279;SDS011;12395;42.808;23.408;2022-10-19T10:15:44;7.63;;;3.30;;
24279;SDS011;12395;42.808;23.408;2022-10-19T10:18:13;5.63;;;2.70;;
24279;SDS011;12395;42.808;23.408;2022-10-19T10:20:54;6.32;;;2.90;;
24279;SDS011;12395;42.808;23.408;2022-10-19T10:23:23;4.60;;;2.67;;
24279;SDS011;12395;42.808;23.408;2022-10-19T10:28:22;5.57;;;2.78;;
24279;SDS011;12395;42.808;23.408;2022-10-19T10:30:52;7.63;;;2.88;;
24279;SDS011;12395;42.808;23.408;2022-10-19T10:33:23;4.55;;;2.47;;
24279;SDS011;12395;42.808;23.408;2022-10-19T10:35:51;7.47;;;2.83;;
24279;SDS011;12395;42.808;23.408;2022-10-19T10:38:21;6.93;;;2.63;;
24279;SDS011;12395;42.808;23.408;2022-10-19T10:40:55;5.50;;;2.72;;
24279;SDS011;12395;42.808;23.408;2022-10-19T10:43:30;4.63;;;2.75;;
24279;SDS011;12395;42.808;23.408;2022-10-19T10:46:07;4.80;;;2.80;;
24279;SDS011;12395;42.808;23.408;2022-10-19T10:48:43;3.92;;;2.40;;
24279;SDS011;12395;42.808;23.408;2022-10-19T10:51:20;4.38;;;2.38;;
24279;SDS011;12395;42.808;23.408;2022-10-19T10:53:50;3.80;;;2.50;;
24279;SDS011;12395;42.808;23.408;2022-10-19T10:56:33;5.47;;;2.70;;
24279;SDS011;12395;42.808;23.408;2022-10-19T10:59:01;4.32;;;2.55;;
24279;SDS011;12395;42.808;23.408;2022-10-19T11:01:41;5.85;;;2.60;;
24279;SDS011;12395;42.808;23.408;2022-10-19T11:04:13;7.35;;;2.70;;
24279;SDS011;12395;42.808;23.408;2022-10-19T11:06:46;5.78;;;2.80;;
24279;SDS011;12395;42.808;23.408;2022-10-19T11:09:23;4.20;;;2.42;;
24279;SDS011;12395;42.808;23.408;2022-10-19T11:11:55;7.10;;;2.75;;
24279;SDS011;12395;42.808;23.408;2022-10-19T11:14:59;3.72;;;2.40;;
24279;SDS011;12395;42.808;23.408;2022-10-19T11:17:28;4.00;;;2.25;;
24279;SDS011;12395;42.808;23.408;2022-10-19T11:19:57;3.85;;;2.30;;
24279;SDS011;12395;42.808;23.408;2022-10-19T11:31:19;3.67;;;2.22;;
24279;SDS011;12395;42.808;23.408;2022-10-19T11:33:53;5.22;;;2.53;;
24279;SDS011;12395;42.808;23.408;2022-10-19T11:44:33;6.20;;;2.50;;
24279;SDS011;12395;42.808;23.408;2022-10-19T12:00:17;4.63;;;2.30;;
24279;SDS011;12395;42.808;23.408;2022-10-19T12:05:40;5.32;;;2.70;;
24279;SDS011;12395;42.808;23.408;2022-10-19T12:13:18;4.80;;;2.17;;
24279;SDS011;12395;42.808;23.408;2022-10-19T12:15:51;4.38;;;2.35;;
24279;SDS011;12395;42.808;23.408;2022-10-19T12:21:03;8.77;;;3.78;;
24279;SDS011;12395;42.808;23.408;2022-10-19T12:23:36;3.70;;;2.60;;
24279;SDS011;12395;42.808;23.408;2022-10-19T12:26:07;12.30;;;4.72;;
24279;SDS011;12395;42.808;23.408;2022-10-19T12:28:39;6.35;;;2.55;;
24279;SDS011;12395;42.808;23.408;2022-10-19T12:31:07;6.70;;;3.30;;
24279;SDS011;12395;42.808;23.408;2022-10-19T12:36:11;11.20;;;4.28;;
24279;SDS011;12395;42.808;23.408;2022-10-19T12:47:07;6.57;;;3.10;;
24279;SDS011;12395;42.808;23.408;2022-10-19T12:49:44;7.05;;;3.10;;
24279;SDS011;12395;42.808;23.408;2022-10-19T12:55:09;7.00;;;3.22;;
24279;SDS011;12395;42.808;23.408;2022-10-19T12:57:34;7.35;;;3.10;;
24279;SDS011;12395;42.808;23.408;2022-10-19T13:00:17;4.80;;;2.85;;
24279;SDS011;12395;42.808;23.408;2022-10-19T13:02:46;4.85;;;2.97;;
24279;SDS011;12395;42.808;23.408;2022-10-19T13:05:20;5.38;;;3.08;;
24279;SDS011;12395;42.808;23.408;2022-10-19T13:07:47;5.60;;;2.58;;
24279;SDS011;12395;42.808;23.408;2022-10-19T13:10:22;5.13;;;2.90;;
24279;SDS011;12395;42.808;23.408;2022-10-19T13:12:50;5.25;;;3.10;;
24279;SDS011;12395;42.808;23.408;2022-10-19T13:18:00;6.00;;;3.00;;
24279;SDS011;12395;42.808;23.408;2022-10-19T13:27:51;4.38;;;2.72;;
24279;SDS011;12395;42.808;23.408;2022-10-19T13:34:09;8.45;;;3.08;;
24279;SDS011;12395;42.808;23.408;2022-10-19T13:36:08;5.47;;;3.33;;
24279;SDS011;12395;42.808;23.408;2022-10-19T13:38:39;4.97;;;3.20;;
24279;SDS011;12395;42.808;23.408;2022-10-19T13:41:09;6.35;;;3.00;;
24279;SDS011;12395;42.808;23.408;2022-10-19T13:54:27;2.33;;;1.50;;
24279;SDS011;12395;42.808;23.408;2022-10-19T14:03:00;4.55;;;2.88;;
24279;SDS011;12395;42.808;23.408;2022-10-19T14:14:19;5.65;;;3.20;;
24279;SDS011;12395;42.808;23.408;2022-10-19T14:21:51;6.18;;;3.20;;
24279;SDS011;12395;42.808;23.408;2022-10-19T14:24:31;6.30;;;3.30;;
24279;SDS011;12395;42.808;23.408;2022-10-19T14:27:07;7.45;;;3.35;;
24279;SDS011;12395;42.808;23.408;2022-10-19T14:29:47;7.55;;;3.72;;
24279;SDS011;12395;42.808;23.408;2022-10-19T14:32:14;8.18;;;3.67;;
24279;SDS011;12395;42.808;23.408;2022-10-19T14:34:43;7.18;;;2.97;;
24279;SDS011;12395;42.808;23.408;2022-10-19T14:37:29;7.75;;;3.42;;
24279;SDS011;12395;42.808;23.408;2022-10-19T14:40:03;5.30;;;3.30;;
24279;SDS011;12395;42.808;23.408;2022-10-19T14:42:45;6.70;;;3.67;;
24279;SDS011;12395;42.808;23.408;2022-10-19T14:45:21;7.93;;;3.35;;
24279;SDS011;12395;42.808;23.408;2022-10-19T14:47:50;5.35;;;3.25;;
24279;SDS011;12395;42.808;23.408;2022-10-19T14:50:16;5.50;;;2.95;;
24279;SDS011;12395;42.808;23.408;2022-10-19T14:52:42;5.28;;;3.13;;
24279;SDS011;12395;42.808;23.408;2022-10-19T14:55:09;7.97;;;3.47;;
24279;SDS011;12395;42.808;23.408;2022-10-19T14:57:38;5.78;;;3.03;;
24279;SDS011;12395;42.808;23.408;2022-10-19T15:00:07;5.63;;;3.40;;
24279;SDS011;12395;42.808;23.408;2022-10-19T15:02:43;6.35;;;3.60;;
24279;SDS011;12395;42.808;23.408;2022-10-19T15:05:19;6.28;;;3.42;;
24279;SDS011;12395;42.808;23.408;2022-10-19T15:07:46;7.97;;;3.45;;
24279;SDS011;12395;42.808;23.408;2022-10-19T15:10:20;8.10;;;3.42;;
24279;SDS011;12395;42.808;23.408;2022-10-19T15:12:46;5.95;;;3.50;;
24279;SDS011;12395;42.808;23.408;2022-10-19T15:15:17;7.10;;;3.60;;
24279;SDS011;12395;42.808;23.408;2022-10-19T15:17:56;6.68;;;3.65;;
24279;SDS011;12395;42.808;23.408;2022-10-19T15:20:29;4.40;;;3.13;;
24279;SDS011;12395;42.808;23.408;2022-10-19T15:22:59;6.53;;;3.53;;
24279;SDS011;12395;42.808;23.408;2022-10-19T15:25:44;5.78;;;3.60;;
24279;SDS011;12395;42.808;23.408;2022-10-19T15:28:17;6.88;;;3.38;;
24279;SDS011;12395;42.808;23.408;2022-10-19T15:30:57;6.20;;;3.65;;
24279;SDS011;12395;42.808;23.408;2022-10-19T15:33:24;6.75;;;3.80;;
24279;SDS011;12395;42.808;23.408;2022-10-19T15:35:50;7.97;;;3.88;;
24279;SDS011;12395;42.808;23.408;2022-10-19T15:38:18;9.68;;;4.70;;
24279;SDS011;12395;42.808;23.408;2022-10-19T15:40:49;9.68;;;5.03;;
24279;SDS011;12395;42.808;23.408;2022-10-19T15:48:28;10.75;;;5.30;;
24279;SDS011;12395;42.808;23.408;2022-10-19T15:53:55;10.80;;;5.05;;
24279;SDS011;12395;42.808;23.408;2022-10-19T15:56:25;8.65;;;5.07;;
24279;SDS011;12395;42.808;23.408;2022-10-19T15:58:54;8.90;;;5.20;;
24279;SDS011;12395;42.808;23.408;2022-10-19T16:01:22;10.13;;;4.85;;
24279;SDS011;12395;42.808;23.408;2022-10-19T16:03:50;8.65;;;5.38;;
24279;SDS011;12395;42.808;23.408;2022-10-19T16:06:16;9.57;;;5.65;;
24279;SDS011;12395;42.808;23.408;2022-10-19T16:08:42;10.02;;;5.20;;
24279;SDS011;12395;42.808;23.408;2022-10-19T16:11:20;11.25;;;5.43;;
24279;SDS011;12395;42.808;23.408;2022-10-19T16:13:47;8.95;;;5.60;;
24279;SDS011;12395;42.808;23.408;2022-10-19T16:16:31;9.20;;;5.55;;
24279;SDS011;12395;42.808;23.408;2022-10-19T16:18:57;11.13;;;5.68;;
24279;SDS011;12395;42.808;23.408;2022-10-19T16:21:25;8.73;;;5.03;;
24279;SDS011;12395;42.808;23.408;2022-10-19T16:23:53;9.50;;;5.18;;
24279;SDS011;12395;42.808;23.408;2022-10-19T16:26:19;11.15;;;5.00;;
24279;SDS011;12395;42.808;23.408;2022-10-19T16:28:45;10.45;;;5.43;;
24279;SDS011;12395;42.808;23.408;2022-10-19T16:31:12;10.57;;;5.07;;
24279;SDS011;12395;42.808;23.408;2022-10-19T16:33:38;12.27;;;5.40;;
24279;SDS011;12395;42.808;23.408;2022-10-19T16:36:04;10.43;;;5.10;;
24279;SDS011;12395;42.808;23.408;2022-10-19T16:38:30;12.25;;;5.20;;
24279;SDS011;12395;42.808;23.408;2022-10-19T16:40:58;8.98;;;4.90;;
24279;SDS011;12395;42.808;23.408;2022-10-19T16:43:25;8.45;;;4.80;;
24279;SDS011;12395;42.808;23.408;2022-10-19T16:45:50;9.95;;;5.03;;
24279;SDS011;12395;42.808;23.408;2022-10-19T16:48:15;9.80;;;5.20;;
24279;SDS011;12395;42.808;23.408;2022-10-19T16:50:41;12.35;;;6.18;;
24279;SDS011;12395;42.808;23.408;2022-10-19T16:53:07;10.98;;;5.13;;
24279;SDS011;12395;42.808;23.408;2022-10-19T16:55:34;10.93;;;5.72;;
24279;SDS011;12395;42.808;23.408;2022-10-19T16:58:06;12.73;;;5.70;;
24279;SDS011;12395;42.808;23.408;2022-10-19T17:00:32;13.40;;;6.50;;
24279;SDS011;12395;42.808;23.408;2022-10-19T17:02:59;11.55;;;6.13;;
24279;SDS011;12395;42.808;23.408;2022-10-19T17:05:24;12.10;;;6.07;;
24279;SDS011;12395;42.808;23.408;2022-10-19T17:07:50;10.57;;;5.22;;
24279;SDS011;12395;42.808;23.408;2022-10-19T17:10:15;12.57;;;5.78;;
24279;SDS011;12395;42.808;23.408;2022-10-19T17:12:41;10.00;;;4.95;;
24279;SDS011;12395;42.808;23.408;2022-10-19T17:15:07;11.68;;;5.68;;
24279;SDS011;12395;42.808;23.408;2022-10-19T17:17:32;9.73;;;4.88;;
24279;SDS011;12395;42.808;23.408;2022-10-19T17:19:58;9.20;;;4.90;;
24279;SDS011;12395;42.808;23.408;2022-10-19T17:22:23;10.18;;;5.22;;
24279;SDS011;12395;42.808;23.408;2022-10-19T17:24:49;8.52;;;5.30;;
24279;SDS011;12395;42.808;23.408;2022-10-19T17:27:14;8.80;;;4.72;;
24279;SDS011;12395;42.808;23.408;2022-10-19T17:29:40;8.45;;;4.63;;
24279;SDS011;12395;42.808;23.408;2022-10-19T17:32:05;8.02;;;4.80;;
24279;SDS011;12395;42.808;23.408;2022-10-19T17:34:31;8.68;;;4.80;;
24279;SDS011;12395;42.808;23.408;2022-10-19T17:36:56;9.90;;;5.63;;
24279;SDS011;12395;42.808;23.408;2022-10-19T17:39:22;11.27;;;5.93;;